sensor_id;sensor_type;location;lat;lon;timestamp;pressure;altitude;pressure_sealevel;temperature;humidity
54870;BME280;40756;-37.950;145.008;2023-05-16T00:00:11;102040.84;;;11.05;65.46
54870;BME280;40756;-37.950;145.008;2023-05-16T00:02:41;102039.50;;;12.26;63.91
54870;BME280;40756;-37.950;145.008;2023-05-16T00:05:11;102037.32;;;12.59;63.02
54870;BME280;40756;-37.950;145.008;2023-05-16T00:07:43;102045.80;;;11.85;63.86
54870;BME280;40756;-37.950;145.008;2023-05-16T00:10:12;102048.11;;;12.44;63.78
54870;BME280;40756;-37.950;145.008;2023-05-16T00:12:42;102048.56;;;12.53;61.45
54870;BME280;40756;-37.950;145.008;2023-05-16T00:15:12;102052.66;;;12.80;59.60
54870;BME280;40756;-37.950;145.008;2023-05-16T00:17:42;102056.16;;;12.13;60.10
54870;BME280;40756;-37.950;145.008;2023-05-16T00:20:13;102055.19;;;11.92;59.95
54870;BME280;40756;-37.950;145.008;2023-05-16T00:22:43;102061.74;;;11.88;59.13
54870;BME280;40756;-37.950;145.008;2023-05-16T00:25:12;102055.39;;;12.61;59.04
54870;BME280;40756;-37.950;145.008;2023-05-16T00:27:42;102061.62;;;12.03;60.93
54870;BME280;40756;-37.950;145.008;2023-05-16T00:30:12;102067.35;;;12.07;62.22
54870;BME280;40756;-37.950;145.008;2023-05-16T00:32:42;102080.54;;;11.26;63.99
54870;BME280;40756;-37.950;145.008;2023-05-16T00:35:12;102079.75;;;12.42;64.11
54870;BME280;40756;-37.950;145.008;2023-05-16T00:37:41;102081.52;;;12.24;64.47
54870;BME280;40756;-37.950;145.008;2023-05-16T00:40:11;102084.19;;;11.54;64.23
54870;BME280;40756;-37.950;145.008;2023-05-16T00:42:41;102087.99;;;11.76;63.54
54870;BME280;40756;-37.950;145.008;2023-05-16T00:45:11;102088.41;;;11.81;62.97
54870;BME280;40756;-37.950;145.008;2023-05-16T00:47:41;102086.01;;;12.19;63.79
54870;BME280;40756;-37.950;145.008;2023-05-16T00:50:11;102098.18;;;11.38;64.38
54870;BME280;40756;-37.950;145.008;2023-05-16T00:52:41;102099.82;;;11.51;62.52
54870;BME280;40756;-37.950;145.008;2023-05-16T00:55:11;102099.76;;;11.87;60.69
54870;BME280;40756;-37.950;145.008;2023-05-16T00:57:41;102098.30;;;12.43;59.16
54870;BME280;40756;-37.950;145.008;2023-05-16T01:00:11;102103.16;;;12.73;58.40
54870;BME280;40756;-37.950;145.008;2023-05-16T01:02:42;102101.22;;;12.24;58.15
54870;BME280;40756;-37.950;145.008;2023-05-16T01:05:11;102103.27;;;11.96;57.99
54870;BME280;40756;-37.950;145.008;2023-05-16T01:07:41;102101.90;;;12.24;58.56
54870;BME280;40756;-37.950;145.008;2023-05-16T01:10:11;102101.49;;;11.95;58.07
54870;BME280;40756;-37.950;145.008;2023-05-16T01:12:56;102104.92;;;11.91;56.77
54870;BME280;40756;-37.950;145.008;2023-05-16T01:15:34;102098.43;;;12.62;55.59
54870;BME280;40756;-37.950;145.008;2023-05-16T01:18:11;102095.11;;;12.77;54.27
54870;BME280;40756;-37.950;145.008;2023-05-16T01:20:46;102099.31;;;13.32;54.61
54870;BME280;40756;-37.950;145.008;2023-05-16T01:23:39;102099.98;;;13.40;51.29
54870;BME280;40756;-37.950;145.008;2023-05-16T01:26:14;102101.34;;;12.24;49.97
54870;BME280;40756;-37.950;145.008;2023-05-16T01:28:45;102094.73;;;12.70;49.96
54870;BME280;40756;-37.950;145.008;2023-05-16T01:31:16;102097.25;;;12.97;48.15
54870;BME280;40756;-37.950;145.008;2023-05-16T01:33:45;102098.94;;;12.98;48.62
54870;BME280;40756;-37.950;145.008;2023-05-16T01:36:23;102098.46;;;13.08;48.19
54870;BME280;40756;-37.950;145.008;2023-05-16T01:39:00;102102.66;;;13.16;48.30
54870;BME280;40756;-37.950;145.008;2023-05-16T01:41:39;102105.05;;;12.65;47.84
54870;BME280;40756;-37.950;145.008;2023-05-16T01:44:18;102108.88;;;13.09;47.19
54870;BME280;40756;-37.950;145.008;2023-05-16T01:46:53;102108.38;;;13.66;45.89
54870;BME280;40756;-37.950;145.008;2023-05-16T01:49:29;102109.45;;;13.23;47.64
54870;BME280;40756;-37.950;145.008;2023-05-16T01:52:03;102111.22;;;12.94;47.63
54870;BME280;40756;-37.950;145.008;2023-05-16T01:54:36;102114.98;;;13.16;45.73
54870;BME280;40756;-37.950;145.008;2023-05-16T01:57:07;102116.67;;;13.28;45.09
54870;BME280;40756;-37.950;145.008;2023-05-16T01:59:37;102118.01;;;14.07;43.56
54870;BME280;40756;-37.950;145.008;2023-05-16T02:02:07;102117.96;;;13.82;43.37
54870;BME280;40756;-37.950;145.008;2023-05-16T02:04:37;102123.04;;;13.06;43.95
54870;BME280;40756;-37.950;145.008;2023-05-16T02:07:06;102119.79;;;13.00;43.09
54870;BME280;40756;-37.950;145.008;2023-05-16T02:09:36;102117.31;;;13.66;43.18
54870;BME280;40756;-37.950;145.008;2023-05-16T02:12:06;102120.16;;;12.80;42.93
54870;BME280;40756;-37.950;145.008;2023-05-16T02:14:36;102116.12;;;14.30;42.10
54870;BME280;40756;-37.950;145.008;2023-05-16T02:17:06;102121.08;;;14.18;41.26
54870;BME280;40756;-37.950;145.008;2023-05-16T02:19:36;102116.61;;;13.81;40.63
54870;BME280;40756;-37.950;145.008;2023-05-16T02:22:06;102118.97;;;13.60;41.02
54870;BME280;40756;-37.950;145.008;2023-05-16T02:24:35;102119.89;;;12.24;41.81
54870;BME280;40756;-37.950;145.008;2023-05-16T02:27:05;102115.50;;;12.69;43.27
54870;BME280;40756;-37.950;145.008;2023-05-16T02:29:35;102118.43;;;12.92;43.46
54870;BME280;40756;-37.950;145.008;2023-05-16T02:32:05;102119.53;;;12.53;44.43
54870;BME280;40756;-37.950;145.008;2023-05-16T02:34:34;102119.18;;;13.54;43.24
54870;BME280;40756;-37.950;145.008;2023-05-16T02:37:04;102117.58;;;13.80;43.10
54870;BME280;40756;-37.950;145.008;2023-05-16T02:39:33;102117.45;;;12.76;43.79
54870;BME280;40756;-37.950;145.008;2023-05-16T02:42:03;102124.47;;;12.59;43.39
54870;BME280;40756;-37.950;145.008;2023-05-16T02:44:32;102116.94;;;13.26;43.15
54870;BME280;40756;-37.950;145.008;2023-05-16T02:47:02;102116.03;;;13.76;42.45
54870;BME280;40756;-37.950;145.008;2023-05-16T02:49:32;102124.79;;;13.19;42.85
54870;BME280;40756;-37.950;145.008;2023-05-16T02:52:01;102122.58;;;13.82;42.95
54870;BME280;40756;-37.950;145.008;2023-05-16T02:54:31;102130.02;;;13.53;42.11
54870;BME280;40756;-37.950;145.008;2023-05-16T02:57:01;102134.66;;;13.21;41.84
54870;BME280;40756;-37.950;145.008;2023-05-16T02:59:31;102130.43;;;11.93;41.47
54870;BME280;40756;-37.950;145.008;2023-05-16T03:02:00;102130.73;;;13.68;40.98
54870;BME280;40756;-37.950;145.008;2023-05-16T03:04:30;102138.04;;;13.32;41.32
54870;BME280;40756;-37.950;145.008;2023-05-16T03:07:00;102132.21;;;12.62;41.87
54870;BME280;40756;-37.950;145.008;2023-05-16T03:09:29;102131.83;;;13.01;41.19
54870;BME280;40756;-37.950;145.008;2023-05-16T03:11:59;102136.31;;;12.74;42.48
54870;BME280;40756;-37.950;145.008;2023-05-16T03:14:28;102131.12;;;13.06;42.81
54870;BME280;40756;-37.950;145.008;2023-05-16T03:16:57;102133.11;;;13.72;41.99
54870;BME280;40756;-37.950;145.008;2023-05-16T03:19:28;102140.27;;;13.30;44.57
54870;BME280;40756;-37.950;145.008;2023-05-16T03:21:58;102137.94;;;13.85;40.17
54870;BME280;40756;-37.950;145.008;2023-05-16T03:24:27;102140.69;;;14.47;40.40
54870;BME280;40756;-37.950;145.008;2023-05-16T03:26:57;102144.33;;;14.12;36.66
54870;BME280;40756;-37.950;145.008;2023-05-16T03:29:27;102143.24;;;13.78;38.43
54870;BME280;40756;-37.950;145.008;2023-05-16T03:31:56;102145.29;;;13.29;38.89
54870;BME280;40756;-37.950;145.008;2023-05-16T03:34:26;102145.84;;;13.74;36.07
54870;BME280;40756;-37.950;145.008;2023-05-16T03:36:55;102150.31;;;13.34;35.94
54870;BME280;40756;-37.950;145.008;2023-05-16T03:39:25;102145.23;;;13.70;37.43
54870;BME280;40756;-37.950;145.008;2023-05-16T03:41:55;102148.11;;;13.69;37.84
54870;BME280;40756;-37.950;145.008;2023-05-16T03:44:24;102148.35;;;13.19;38.33
54870;BME280;40756;-37.950;145.008;2023-05-16T03:46:54;102155.24;;;13.57;38.46
54870;BME280;40756;-37.950;145.008;2023-05-16T03:49:27;102157.23;;;13.46;39.87
54870;BME280;40756;-37.950;145.008;2023-05-16T03:51:56;102159.44;;;12.94;42.38
54870;BME280;40756;-37.950;145.008;2023-05-16T03:54:26;102161.46;;;12.86;41.88
54870;BME280;40756;-37.950;145.008;2023-05-16T03:56:56;102168.54;;;12.66;41.81
54870;BME280;40756;-37.950;145.008;2023-05-16T03:59:25;102166.37;;;12.93;40.37
54870;BME280;40756;-37.950;145.008;2023-05-16T04:01:55;102167.52;;;13.21;41.60
54870;BME280;40756;-37.950;145.008;2023-05-16T04:04:25;102167.02;;;14.06;40.25
54870;BME280;40756;-37.950;145.008;2023-05-16T04:06:54;102167.37;;;13.52;38.55
54870;BME280;40756;-37.950;145.008;2023-05-16T04:09:23;102167.37;;;14.36;36.92
54870;BME280;40756;-37.950;145.008;2023-05-16T04:11:53;102176.05;;;13.53;39.38
54870;BME280;40756;-37.950;145.008;2023-05-16T04:14:23;102173.47;;;13.97;38.11
54870;BME280;40756;-37.950;145.008;2023-05-16T04:16:52;102172.33;;;14.25;38.25
54870;BME280;40756;-37.950;145.008;2023-05-16T04:19:22;102173.36;;;13.33;38.03
54870;BME280;40756;-37.950;145.008;2023-05-16T04:21:52;102178.82;;;13.81;38.40
54870;BME280;40756;-37.950;145.008;2023-05-16T04:24:22;102179.56;;;13.61;38.16
54870;BME280;40756;-37.950;145.008;2023-05-16T04:27:09;102184.86;;;14.09;39.34
54870;BME280;40756;-37.950;145.008;2023-05-16T04:29:39;102191.82;;;12.78;43.75
54870;BME280;40756;-37.950;145.008;2023-05-16T04:32:08;102197.82;;;12.53;45.07
54870;BME280;40756;-37.950;145.008;2023-05-16T04:34:37;102194.40;;;12.95;45.95
54870;BME280;40756;-37.950;145.008;2023-05-16T04:37:07;102200.67;;;13.75;44.64
54870;BME280;40756;-37.950;145.008;2023-05-16T04:39:37;102203.35;;;13.66;44.46
54870;BME280;40756;-37.950;145.008;2023-05-16T04:42:07;102202.39;;;13.32;44.54
54870;BME280;40756;-37.950;145.008;2023-05-16T04:44:36;102204.04;;;13.03;45.22
54870;BME280;40756;-37.950;145.008;2023-05-16T04:47:05;102216.63;;;13.22;44.69
54870;BME280;40756;-37.950;145.008;2023-05-16T04:49:35;102215.19;;;12.42;46.02
54870;BME280;40756;-37.950;145.008;2023-05-16T04:52:05;102216.24;;;13.08;45.25
54870;BME280;40756;-37.950;145.008;2023-05-16T04:54:36;102223.71;;;12.44;46.20
54870;BME280;40756;-37.950;145.008;2023-05-16T04:57:06;102225.49;;;12.71;45.21
54870;BME280;40756;-37.950;145.008;2023-05-16T04:59:36;102230.04;;;13.50;43.47
54870;BME280;40756;-37.950;145.008;2023-05-16T05:02:05;102236.20;;;12.34;44.87
54870;BME280;40756;-37.950;145.008;2023-05-16T05:04:35;102235.81;;;13.26;45.82
54870;BME280;40756;-37.950;145.008;2023-05-16T05:07:05;102241.62;;;12.22;46.14
54870;BME280;40756;-37.950;145.008;2023-05-16T05:09:34;102244.14;;;12.77;45.82
54870;BME280;40756;-37.950;145.008;2023-05-16T05:12:04;102242.06;;;12.72;45.64
54870;BME280;40756;-37.950;145.008;2023-05-16T05:14:34;102239.69;;;12.52;44.05
54870;BME280;40756;-37.950;145.008;2023-05-16T05:17:04;102243.73;;;12.99;43.43
54870;BME280;40756;-37.950;145.008;2023-05-16T05:19:33;102247.63;;;12.65;41.66
54870;BME280;40756;-37.950;145.008;2023-05-16T05:22:03;102245.75;;;13.12;43.69
54870;BME280;40756;-37.950;145.008;2023-05-16T05:24:33;102240.26;;;13.83;41.07
54870;BME280;40756;-37.950;145.008;2023-05-16T05:27:03;102239.15;;;13.87;40.31
54870;BME280;40756;-37.950;145.008;2023-05-16T05:29:32;102236.85;;;13.91;37.15
54870;BME280;40756;-37.950;145.008;2023-05-16T05:32:02;102239.29;;;14.12;36.68
54870;BME280;40756;-37.950;145.008;2023-05-16T05:34:32;102240.49;;;12.02;38.08
54870;BME280;40756;-37.950;145.008;2023-05-16T05:37:01;102238.19;;;13.80;37.09
54870;BME280;40756;-37.950;145.008;2023-05-16T05:39:31;102236.97;;;13.97;37.24
54870;BME280;40756;-37.950;145.008;2023-05-16T05:42:01;102237.14;;;13.60;39.19
54870;BME280;40756;-37.950;145.008;2023-05-16T05:44:30;102236.31;;;14.69;42.29
54870;BME280;40756;-37.950;145.008;2023-05-16T05:47:00;102245.24;;;14.20;41.83
54870;BME280;40756;-37.950;145.008;2023-05-16T05:49:30;102245.09;;;14.73;37.96
54870;BME280;40756;-37.950;145.008;2023-05-16T05:52:00;102245.73;;;14.69;38.22
54870;BME280;40756;-37.950;145.008;2023-05-16T05:54:30;102248.87;;;14.16;36.78
54870;BME280;40756;-37.950;145.008;2023-05-16T05:56:59;102249.91;;;13.93;37.22
54870;BME280;40756;-37.950;145.008;2023-05-16T05:59:29;102244.27;;;14.16;37.46
54870;BME280;40756;-37.950;145.008;2023-05-16T06:01:59;102250.74;;;14.35;36.07
54870;BME280;40756;-37.950;145.008;2023-05-16T06:04:28;102251.44;;;15.17;35.25
54870;BME280;40756;-37.950;145.008;2023-05-16T06:06:58;102253.92;;;13.78;35.63
54870;BME280;40756;-37.950;145.008;2023-05-16T06:09:28;102257.50;;;13.27;37.18
54870;BME280;40756;-37.950;145.008;2023-05-16T06:11:57;102255.42;;;14.39;36.23
54870;BME280;40756;-37.950;145.008;2023-05-16T06:14:27;102254.47;;;13.80;37.31
54870;BME280;40756;-37.950;145.008;2023-05-16T06:16:57;102262.67;;;13.17;39.03
54870;BME280;40756;-37.950;145.008;2023-05-16T06:19:27;102264.79;;;13.35;38.94
54870;BME280;40756;-37.950;145.008;2023-05-16T06:21:57;102267.94;;;13.43;38.92
54870;BME280;40756;-37.950;145.008;2023-05-16T06:24:27;102272.78;;;13.94;39.33
54870;BME280;40756;-37.950;145.008;2023-05-16T06:26:57;102274.74;;;14.53;37.80
54870;BME280;40756;-37.950;145.008;2023-05-16T06:29:27;102280.16;;;14.38;38.10
54870;BME280;40756;-37.950;145.008;2023-05-16T06:31:56;102279.19;;;14.42;37.30
54870;BME280;40756;-37.950;145.008;2023-05-16T06:34:26;102279.76;;;13.55;38.22
54870;BME280;40756;-37.950;145.008;2023-05-16T06:36:56;102283.18;;;13.69;38.87
54870;BME280;40756;-37.950;145.008;2023-05-16T06:39:25;102285.78;;;13.70;39.17
54870;BME280;40756;-37.950;145.008;2023-05-16T06:41:55;102292.46;;;13.36;39.21
54870;BME280;40756;-37.950;145.008;2023-05-16T06:44:25;102289.18;;;13.04;40.62
54870;BME280;40756;-37.950;145.008;2023-05-16T06:46:54;102294.83;;;13.20;41.49
54870;BME280;40756;-37.950;145.008;2023-05-16T06:49:24;102303.90;;;11.98;45.54
54870;BME280;40756;-37.950;145.008;2023-05-16T06:51:55;102301.40;;;12.46;44.53
54870;BME280;40756;-37.950;145.008;2023-05-16T06:54:24;102308.61;;;11.46;45.86
54870;BME280;40756;-37.950;145.008;2023-05-16T06:56:54;102312.80;;;11.36;46.11
54870;BME280;40756;-37.950;145.008;2023-05-16T06:59:23;102321.80;;;10.95;46.20
54870;BME280;40756;-37.950;145.008;2023-05-16T07:01:53;102322.83;;;10.65;46.43
54870;BME280;40756;-37.950;145.008;2023-05-16T07:04:23;102323.35;;;9.84;46.35
54870;BME280;40756;-37.950;145.008;2023-05-16T07:06:53;102322.19;;;9.92;47.12
54870;BME280;40756;-37.950;145.008;2023-05-16T07:09:22;102338.20;;;10.67;47.09
54870;BME280;40756;-37.950;145.008;2023-05-16T07:11:52;102348.87;;;10.62;49.28
54870;BME280;40756;-37.950;145.008;2023-05-16T07:14:22;102350.57;;;10.16;51.08
54870;BME280;40756;-37.950;145.008;2023-05-16T07:16:52;102347.22;;;11.29;50.39
54870;BME280;40756;-37.950;145.008;2023-05-16T07:19:21;102345.27;;;11.90;49.41
54870;BME280;40756;-37.950;145.008;2023-05-16T07:21:51;102348.71;;;11.74;48.52
54870;BME280;40756;-37.950;145.008;2023-05-16T07:24:21;102348.33;;;11.66;48.92
54870;BME280;40756;-37.950;145.008;2023-05-16T07:26:51;102350.52;;;11.55;49.06
54870;BME280;40756;-37.950;145.008;2023-05-16T07:29:20;102346.76;;;11.52;48.19
54870;BME280;40756;-37.950;145.008;2023-05-16T07:31:50;102351.38;;;11.97;48.35
54870;BME280;40756;-37.950;145.008;2023-05-16T07:34:20;102357.13;;;11.73;48.22
54870;BME280;40756;-37.950;145.008;2023-05-16T07:36:50;102361.56;;;11.49;49.52
54870;BME280;40756;-37.950;145.008;2023-05-16T07:39:19;102364.26;;;11.48;49.43
54870;BME280;40756;-37.950;145.008;2023-05-16T07:41:49;102364.57;;;11.48;49.03
54870;BME280;40756;-37.950;145.008;2023-05-16T07:44:19;102365.59;;;11.88;48.53
54870;BME280;40756;-37.950;145.008;2023-05-16T07:46:49;102371.79;;;11.83;48.42
54870;BME280;40756;-37.950;145.008;2023-05-16T07:49:18;102375.81;;;11.86;48.90
54870;BME280;40756;-37.950;145.008;2023-05-16T07:51:48;102376.77;;;11.10;48.67
54870;BME280;40756;-37.950;145.008;2023-05-16T07:54:18;102377.30;;;11.22;48.59
54870;BME280;40756;-37.950;145.008;2023-05-16T07:56:47;102378.23;;;11.45;48.36
54870;BME280;40756;-37.950;145.008;2023-05-16T07:59:17;102381.41;;;11.46;48.80
54870;BME280;40756;-37.950;145.008;2023-05-16T08:01:47;102383.77;;;11.49;48.24
54870;BME280;40756;-37.950;145.008;2023-05-16T08:04:17;102382.09;;;11.50;47.18
54870;BME280;40756;-37.950;145.008;2023-05-16T08:06:47;102385.58;;;11.50;48.11
54870;BME280;40756;-37.950;145.008;2023-05-16T08:09:16;102389.31;;;12.05;48.89
54870;BME280;40756;-37.950;145.008;2023-05-16T08:11:46;102390.88;;;12.02;47.17
54870;BME280;40756;-37.950;145.008;2023-05-16T08:14:15;102394.18;;;11.67;47.53
54870;BME280;40756;-37.950;145.008;2023-05-16T08:16:45;102389.12;;;11.83;47.46
54870;BME280;40756;-37.950;145.008;2023-05-16T08:19:15;102393.83;;;11.37;47.43
54870;BME280;40756;-37.950;145.008;2023-05-16T08:21:45;102396.53;;;11.76;46.73
54870;BME280;40756;-37.950;145.008;2023-05-16T08:24:14;102401.11;;;11.37;45.74
54870;BME280;40756;-37.950;145.008;2023-05-16T08:26:44;102404.73;;;10.88;46.55
54870;BME280;40756;-37.950;145.008;2023-05-16T08:29:15;102409.24;;;11.31;46.10
54870;BME280;40756;-37.950;145.008;2023-05-16T08:31:45;102411.30;;;11.11;47.18
54870;BME280;40756;-37.950;145.008;2023-05-16T08:34:14;102416.10;;;10.89;47.44
54870;BME280;40756;-37.950;145.008;2023-05-16T08:36:44;102415.14;;;11.38;47.29
54870;BME280;40756;-37.950;145.008;2023-05-16T08:39:14;102418.68;;;10.85;48.11
54870;BME280;40756;-37.950;145.008;2023-05-16T08:41:44;102415.82;;;11.25;48.26
54870;BME280;40756;-37.950;145.008;2023-05-16T08:44:13;102418.18;;;10.98;47.89
54870;BME280;40756;-37.950;145.008;2023-05-16T08:46:44;102419.82;;;11.19;48.17
54870;BME280;40756;-37.950;145.008;2023-05-16T08:49:18;102426.35;;;11.12;48.28
54870;BME280;40756;-37.950;145.008;2023-05-16T08:51:50;102431.92;;;10.97;48.55
54870;BME280;40756;-37.950;145.008;2023-05-16T08:54:20;102436.56;;;11.10;48.47
54870;BME280;40756;-37.950;145.008;2023-05-16T08:56:50;102436.89;;;10.51;50.04
54870;BME280;40756;-37.950;145.008;2023-05-16T08:59:21;102439.40;;;10.61;49.84
54870;BME280;40756;-37.950;145.008;2023-05-16T09:01:50;102446.00;;;10.63;48.81
54870;BME280;40756;-37.950;145.008;2023-05-16T09:04:21;102441.89;;;10.89;48.60
54870;BME280;40756;-37.950;145.008;2023-05-16T09:06:51;102445.41;;;11.19;48.62
54870;BME280;40756;-37.950;145.008;2023-05-16T09:09:22;102445.83;;;10.79;48.79
54870;BME280;40756;-37.950;145.008;2023-05-16T09:11:52;102447.80;;;10.86;52.45
54870;BME280;40756;-37.950;145.008;2023-05-16T09:14:22;102451.80;;;11.09;50.58
54870;BME280;40756;-37.950;145.008;2023-05-16T09:17:05;102452.98;;;12.23;52.56
54870;BME280;40756;-37.950;145.008;2023-05-16T09:19:39;102453.87;;;11.97;46.03
54870;BME280;40756;-37.950;145.008;2023-05-16T09:22:11;102454.90;;;12.06;45.53
54870;BME280;40756;-37.950;145.008;2023-05-16T09:24:42;102450.09;;;11.61;45.58
54870;BME280;40756;-37.950;145.008;2023-05-16T09:27:13;102447.59;;;11.79;44.28
54870;BME280;40756;-37.950;145.008;2023-05-16T09:29:45;102449.25;;;11.38;45.02
54870;BME280;40756;-37.950;145.008;2023-05-16T09:32:15;102445.62;;;12.03;44.97
54870;BME280;40756;-37.950;145.008;2023-05-16T09:34:46;102445.59;;;11.60;45.17
54870;BME280;40756;-37.950;145.008;2023-05-16T09:37:17;102455.96;;;11.51;44.47
54870;BME280;40756;-37.950;145.008;2023-05-16T09:39:47;102460.24;;;11.89;48.74
54870;BME280;40756;-37.950;145.008;2023-05-16T09:42:19;102457.98;;;11.82;44.77
54870;BME280;40756;-37.950;145.008;2023-05-16T09:44:49;102462.60;;;11.85;44.52
54870;BME280;40756;-37.950;145.008;2023-05-16T09:47:20;102460.42;;;11.78;44.35
54870;BME280;40756;-37.950;145.008;2023-05-16T09:49:53;102460.73;;;11.90;44.08
54870;BME280;40756;-37.950;145.008;2023-05-16T09:52:25;102464.57;;;11.99;44.57
54870;BME280;40756;-37.950;145.008;2023-05-16T09:54:55;102466.34;;;12.00;44.69
54870;BME280;40756;-37.950;145.008;2023-05-16T09:57:25;102467.73;;;11.80;44.93
54870;BME280;40756;-37.950;145.008;2023-05-16T09:59:59;102466.89;;;12.25;45.18
54870;BME280;40756;-37.950;145.008;2023-05-16T10:02:29;102470.00;;;11.73;45.29
54870;BME280;40756;-37.950;145.008;2023-05-16T10:04:58;102471.34;;;11.22;46.89
54870;BME280;40756;-37.950;145.008;2023-05-16T10:07:29;102467.63;;;11.76;46.18
54870;BME280;40756;-37.950;145.008;2023-05-16T10:10:00;102466.66;;;11.61;46.36
54870;BME280;40756;-37.950;145.008;2023-05-16T10:12:35;102470.48;;;11.21;47.68
54870;BME280;40756;-37.950;145.008;2023-05-16T10:15:06;102470.74;;;10.96;48.50
54870;BME280;40756;-37.950;145.008;2023-05-16T10:17:37;102472.92;;;10.88;48.65
54870;BME280;40756;-37.950;145.008;2023-05-16T10:20:10;102473.61;;;10.78;48.92
54870;BME280;40756;-37.950;145.008;2023-05-16T10:22:43;102479.91;;;10.79;48.83
54870;BME280;40756;-37.950;145.008;2023-05-16T10:25:21;102478.20;;;10.76;49.11
54870;BME280;40756;-37.950;145.008;2023-05-16T10:27:55;102481.66;;;10.57;49.48
54870;BME280;40756;-37.950;145.008;2023-05-16T10:30:25;102479.87;;;10.27;50.42
54870;BME280;40756;-37.950;145.008;2023-05-16T10:32:56;102486.02;;;10.51;50.29
54870;BME280;40756;-37.950;145.008;2023-05-16T10:35:27;102490.32;;;10.57;50.42
54870;BME280;40756;-37.950;145.008;2023-05-16T10:37:58;102501.33;;;10.85;50.13
54870;BME280;40756;-37.950;145.008;2023-05-16T10:40:29;102507.55;;;10.77;50.56
54870;BME280;40756;-37.950;145.008;2023-05-16T10:43:01;102509.15;;;9.79;52.23
54870;BME280;40756;-37.950;145.008;2023-05-16T10:45:31;102507.26;;;9.91;53.34
54870;BME280;40756;-37.950;145.008;2023-05-16T10:48:02;102504.79;;;10.08;53.36
54870;BME280;40756;-37.950;145.008;2023-05-16T10:50:33;102507.91;;;10.21;53.12
54870;BME280;40756;-37.950;145.008;2023-05-16T10:53:36;102509.00;;;9.96;52.98
54870;BME280;40756;-37.950;145.008;2023-05-16T10:56:09;102507.83;;;10.79;51.81
54870;BME280;40756;-37.950;145.008;2023-05-16T10:58:47;102509.51;;;10.86;51.42
54870;BME280;40756;-37.950;145.008;2023-05-16T11:01:19;102507.82;;;10.98;51.74
54870;BME280;40756;-37.950;145.008;2023-05-16T11:04:07;102507.99;;;10.24;51.74
54870;BME280;40756;-37.950;145.008;2023-05-16T11:06:45;102509.60;;;10.96;51.20
54870;BME280;40756;-37.950;145.008;2023-05-16T11:09:24;102510.07;;;11.38;50.99
54870;BME280;40756;-37.950;145.008;2023-05-16T11:12:01;102510.12;;;11.42;50.80
54870;BME280;40756;-37.950;145.008;2023-05-16T11:14:37;102513.71;;;11.66;50.99
54870;BME280;40756;-37.950;145.008;2023-05-16T11:17:10;102518.01;;;11.70;51.31
54870;BME280;40756;-37.950;145.008;2023-05-16T11:19:42;102523.35;;;11.66;51.41
54870;BME280;40756;-37.950;145.008;2023-05-16T11:22:22;102525.16;;;11.18;51.91
54870;BME280;40756;-37.950;145.008;2023-05-16T11:24:55;102522.95;;;11.81;51.52
54870;BME280;40756;-37.950;145.008;2023-05-16T11:27:27;102528.14;;;11.35;51.62
54870;BME280;40756;-37.950;145.008;2023-05-16T11:29:59;102530.82;;;11.74;51.65
54870;BME280;40756;-37.950;145.008;2023-05-16T11:32:30;102529.57;;;11.26;51.53
54870;BME280;40756;-37.950;145.008;2023-05-16T11:34:59;102530.81;;;11.59;51.42
54870;BME280;40756;-37.950;145.008;2023-05-16T11:37:29;102533.55;;;11.83;51.21
54870;BME280;40756;-37.950;145.008;2023-05-16T11:40:00;102531.52;;;11.74;51.42
54870;BME280;40756;-37.950;145.008;2023-05-16T11:42:33;102529.71;;;11.01;51.75
54870;BME280;40756;-37.950;145.008;2023-05-16T11:45:06;102532.47;;;11.15;51.11
54870;BME280;40756;-37.950;145.008;2023-05-16T11:47:38;102539.66;;;11.50;51.16
54870;BME280;40756;-37.950;145.008;2023-05-16T11:50:10;102537.54;;;11.54;51.16
54870;BME280;40756;-37.950;145.008;2023-05-16T11:52:42;102539.02;;;11.58;51.21
54870;BME280;40756;-37.950;145.008;2023-05-16T11:55:12;102538.65;;;11.49;51.56
54870;BME280;40756;-37.950;145.008;2023-05-16T11:57:42;102535.64;;;11.50;51.86
54870;BME280;40756;-37.950;145.008;2023-05-16T12:00:17;102529.15;;;11.50;51.20
54870;BME280;40756;-37.950;145.008;2023-05-16T12:02:47;102529.93;;;11.26;51.17
54870;BME280;40756;-37.950;145.008;2023-05-16T12:05:18;102533.94;;;11.20;51.01
54870;BME280;40756;-37.950;145.008;2023-05-16T12:07:48;102530.93;;;11.32;50.94
54870;BME280;40756;-37.950;145.008;2023-05-16T12:10:18;102527.60;;;11.03;51.08
54870;BME280;40756;-37.950;145.008;2023-05-16T12:12:49;102527.60;;;11.33;50.79
54870;BME280;40756;-37.950;145.008;2023-05-16T12:15:20;102528.97;;;11.14;50.94
54870;BME280;40756;-37.950;145.008;2023-05-16T12:17:51;102528.45;;;11.23;51.00
54870;BME280;40756;-37.950;145.008;2023-05-16T12:20:20;102533.64;;;10.94;50.56
54870;BME280;40756;-37.950;145.008;2023-05-16T12:22:50;102531.28;;;11.00;49.22
54870;BME280;40756;-37.950;145.008;2023-05-16T12:25:25;102530.63;;;11.04;49.00
54870;BME280;40756;-37.950;145.008;2023-05-16T12:27:56;102530.07;;;11.02;48.88
54870;BME280;40756;-37.950;145.008;2023-05-16T12:30:28;102528.62;;;9.95;48.10
54870;BME280;40756;-37.950;145.008;2023-05-16T12:32:59;102527.35;;;10.41;47.86
54870;BME280;40756;-37.950;145.008;2023-05-16T12:35:32;102524.59;;;10.64;47.40
54870;BME280;40756;-37.950;145.008;2023-05-16T12:38:05;102523.91;;;10.61;47.88